sensor_id;sensor_type;location;lat;lon;timestamp;temperature;humidity
19435;DHT22;9853;50.848;4.108;2023-05-13T00:13:45;14.70;99.90
19435;DHT22;9853;50.848;4.108;2023-05-13T00:16:49;14.60;99.90
19435;DHT22;9853;50.848;4.108;2023-05-13T00:33:27;14.80;99.90
19435;DHT22;9853;50.848;4.108;2023-05-13T00:39:46;14.90;99.90
19435;DHT22;9853;50.848;4.108;2023-05-13T00:42:29;14.80;99.90
19435;DHT22;9853;50.848;4.108;2023-05-13T00:45:59;14.90;99.90
19435;DHT22;9853;50.848;4.108;2023-05-13T00:53:12;15.00;99.90
19435;DHT22;9853;50.848;4.108;2023-05-13T01:00:03;15.10;99.90
19435;DHT22;9853;50.848;4.108;2023-05-13T01:31:24;14.90;99.90
19435;DHT22;9853;50.848;4.108;2023-05-13T01:38:32;14.80;99.90
19435;DHT22;9853;50.848;4.108;2023-05-13T01:48:49;14.60;99.90
19435;DHT22;9853;50.848;4.108;2023-05-13T01:58:30;14.80;99.90
19435;DHT22;9853;50.848;4.108;2023-05-13T02:04:41;14.80;99.90
19435;DHT22;9853;50.848;4.108;2023-05-13T02:08:05;14.80;99.90
19435;DHT22;9853;50.848;4.108;2023-05-13T02:20:42;14.80;99.90
19435;DHT22;9853;50.848;4.108;2023-05-13T02:45:13;14.70;99.90
19435;DHT22;9853;50.848;4.108;2023-05-13T03:07:54;14.60;99.90
19435;DHT22;9853;50.848;4.108;2023-05-13T03:17:32;14.30;99.90
19435;DHT22;9853;50.848;4.108;2023-05-13T03:51:42;14.30;99.90
19435;DHT22;9853;50.848;4.108;2023-05-13T04:51:12;14.40;99.90
19435;DHT22;9853;50.848;4.108;2023-05-13T04:57:15;14.50;99.90
19435;DHT22;9853;50.848;4.108;2023-05-13T05:09:11;14.90;99.90
19435;DHT22;9853;50.848;4.108;2023-05-13T05:15:09;15.00;99.90
19435;DHT22;9853;50.848;4.108;2023-05-13T05:17:58;14.90;99.90
19435;DHT22;9853;50.848;4.108;2023-05-13T05:20:25;14.80;99.90
19435;DHT22;9853;50.848;4.108;2023-05-13T05:23:05;14.90;99.90
19435;DHT22;9853;50.848;4.108;2023-05-13T05:25:50;15.20;99.90
19435;DHT22;9853;50.848;4.108;2023-05-13T05:28:27;15.30;99.90
19435;DHT22;9853;50.848;4.108;2023-05-13T05:31:25;15.40;99.90
19435;DHT22;9853;50.848;4.108;2023-05-13T05:34:14;15.30;99.90
19435;DHT22;9853;50.848;4.108;2023-05-13T05:36:21;15.50;99.90
19435;DHT22;9853;50.848;4.108;2023-05-13T05:38:36;15.60;99.90
19435;DHT22;9853;50.848;4.108;2023-05-13T05:44:26;15.80;99.90
19435;DHT22;9853;50.848;4.108;2023-05-13T05:49:21;15.70;99.90
19435;DHT22;9853;50.848;4.108;2023-05-13T05:52:15;16.00;99.90
19435;DHT22;9853;50.848;4.108;2023-05-13T05:54:36;16.70;99.90
19435;DHT22;9853;50.848;4.108;2023-05-13T05:56:57;16.90;99.90
19435;DHT22;9853;50.848;4.108;2023-05-13T05:59:01;16.90;99.90
19435;DHT22;9853;50.848;4.108;2023-05-13T06:01:07;16.90;99.90
19435;DHT22;9853;50.848;4.108;2023-05-13T06:03:08;16.50;99.90
19435;DHT22;9853;50.848;4.108;2023-05-13T06:05:21;16.30;99.90
19435;DHT22;9853;50.848;4.108;2023-05-13T06:07:31;16.20;99.90
19435;DHT22;9853;50.848;4.108;2023-05-13T06:09:40;16.10;99.90
19435;DHT22;9853;50.848;4.108;2023-05-13T06:11:42;16.00;99.90
19435;DHT22;9853;50.848;4.108;2023-05-13T06:13:52;16.00;99.90
19435;DHT22;9853;50.848;4.108;2023-05-13T06:15:53;16.30;99.90
19435;DHT22;9853;50.848;4.108;2023-05-13T06:17:54;16.30;99.90
19435;DHT22;9853;50.848;4.108;2023-05-13T06:19:59;16.30;99.90
19435;DHT22;9853;50.848;4.108;2023-05-13T06:22:00;16.20;99.90
19435;DHT22;9853;50.848;4.108;2023-05-13T06:24:03;16.20;99.90
19435;DHT22;9853;50.848;4.108;2023-05-13T06:26:10;16.20;99.90
19435;DHT22;9853;50.848;4.108;2023-05-13T06:28:14;16.20;99.90
19435;DHT22;9853;50.848;4.108;2023-05-13T06:30:15;16.40;99.90
19435;DHT22;9853;50.848;4.108;2023-05-13T06:32:24;16.50;99.90
19435;DHT22;9853;50.848;4.108;2023-05-13T06:34:40;16.50;99.90
19435;DHT22;9853;50.848;4.108;2023-05-13T06:36:57;16.70;99.90
19435;DHT22;9853;50.848;4.108;2023-05-13T06:38:59;16.70;99.90
19435;DHT22;9853;50.848;4.108;2023-05-13T06:41:03;16.60;99.90
19435;DHT22;9853;50.848;4.108;2023-05-13T06:43:07;16.50;99.90
19435;DHT22;9853;50.848;4.108;2023-05-13T06:45:12;16.50;99.90
19435;DHT22;9853;50.848;4.108;2023-05-13T06:47:15;16.70;99.90
19435;DHT22;9853;50.848;4.108;2023-05-13T06:49:22;16.90;99.90
19435;DHT22;9853;50.848;4.108;2023-05-13T06:51:36;17.00;99.90
19435;DHT22;9853;50.848;4.108;2023-05-13T06:53:39;16.90;99.90
19435;DHT22;9853;50.848;4.108;2023-05-13T06:55:41;17.00;99.90
19435;DHT22;9853;50.848;4.108;2023-05-13T06:57:49;17.00;99.90
19435;DHT22;9853;50.848;4.108;2023-05-13T06:59:53;17.00;99.90
19435;DHT22;9853;50.848;4.108;2023-05-13T07:01:54;17.10;99.90
19435;DHT22;9853;50.848;4.108;2023-05-13T07:03:58;17.10;99.90
19435;DHT22;9853;50.848;4.108;2023-05-13T07:05:58;17.20;99.90
19435;DHT22;9853;50.848;4.108;2023-05-13T07:08:31;17.40;99.90
19435;DHT22;9853;50.848;4.108;2023-05-13T07:10:32;17.60;99.90
19435;DHT22;9853;50.848;4.108;2023-05-13T07:12:33;18.30;99.90
19435;DHT22;9853;50.848;4.108;2023-05-13T07:14:47;19.00;99.90
19435;DHT22;9853;50.848;4.108;2023-05-13T07:16:48;19.70;99.90
19435;DHT22;9853;50.848;4.108;2023-05-13T07:19:02;20.60;99.90
19435;DHT22;9853;50.848;4.108;2023-05-13T07:21:04;21.10;99.90
19435;DHT22;9853;50.848;4.108;2023-05-13T07:23:06;20.80;99.90
19435;DHT22;9853;50.848;4.108;2023-05-13T07:25:07;21.10;99.90
19435;DHT22;9853;50.848;4.108;2023-05-13T07:27:08;20.10;99.90
19435;DHT22;9853;50.848;4.108;2023-05-13T07:29:11;19.70;99.90
19435;DHT22;9853;50.848;4.108;2023-05-13T07:31:21;19.40;99.90
19435;DHT22;9853;50.848;4.108;2023-05-13T07:33:45;19.50;99.90
19435;DHT22;9853;50.848;4.108;2023-05-13T07:35:54;20.20;99.90
19435;DHT22;9853;50.848;4.108;2023-05-13T07:38:00;20.80;99.90
19435;DHT22;9853;50.848;4.108;2023-05-13T07:40:15;21.50;99.90
19435;DHT22;9853;50.848;4.108;2023-05-13T07:42:56;21.70;99.90
19435;DHT22;9853;50.848;4.108;2023-05-13T07:45:01;22.30;99.90
19435;DHT22;9853;50.848;4.108;2023-05-13T07:47:09;22.80;99.90
19435;DHT22;9853;50.848;4.108;2023-05-13T07:49:13;23.00;99.90
19435;DHT22;9853;50.848;4.108;2023-05-13T07:51:16;23.10;99.90
19435;DHT22;9853;50.848;4.108;2023-05-13T07:53:17;24.20;99.90
19435;DHT22;9853;50.848;4.108;2023-05-13T07:55:32;24.20;99.90
19435;DHT22;9853;50.848;4.108;2023-05-13T07:57:41;23.80;99.90
19435;DHT22;9853;50.848;4.108;2023-05-13T07:59:41;24.60;99.90
19435;DHT22;9853;50.848;4.108;2023-05-13T08:01:58;25.40;99.90
19435;DHT22;9853;50.848;4.108;2023-05-13T08:04:07;25.80;99.90
19435;DHT22;9853;50.848;4.108;2023-05-13T08:06:21;25.50;99.90
19435;DHT22;9853;50.848;4.108;2023-05-13T08:11:17;25.90;99.90
19435;DHT22;9853;50.848;4.108;2023-05-13T08:13:25;25.30;99.90
19435;DHT22;9853;50.848;4.108;2023-05-13T08:15:28;24.50;99.90
19435;DHT22;9853;50.848;4.108;2023-05-13T08:17:32;23.20;99.90
19435;DHT22;9853;50.848;4.108;2023-05-13T08:19:36;23.30;99.90
19435;DHT22;9853;50.848;4.108;2023-05-13T08:24:04;22.40;99.90
19435;DHT22;9853;50.848;4.108;2023-05-13T08:26:11;20.90;99.90
19435;DHT22;9853;50.848;4.108;2023-05-13T08:28:15;20.20;99.90
19435;DHT22;9853;50.848;4.108;2023-05-13T08:30:20;19.60;99.90
19435;DHT22;9853;50.848;4.108;2023-05-13T08:32:27;20.10;99.90
19435;DHT22;9853;50.848;4.108;2023-05-13T08:34:28;21.40;99.90
19435;DHT22;9853;50.848;4.108;2023-05-13T08:36:28;21.90;99.90
19435;DHT22;9853;50.848;4.108;2023-05-13T08:38:33;22.40;99.90
19435;DHT22;9853;50.848;4.108;2023-05-13T08:40:56;22.60;99.90
19435;DHT22;9853;50.848;4.108;2023-05-13T08:43:00;22.30;99.90
19435;DHT22;9853;50.848;4.108;2023-05-13T08:45:08;22.40;99.90
19435;DHT22;9853;50.848;4.108;2023-05-13T08:47:57;22.40;99.90
19435;DHT22;9853;50.848;4.108;2023-05-13T08:49:56;22.90;99.90
19435;DHT22;9853;50.848;4.108;2023-05-13T08:51:59;22.90;99.90
19435;DHT22;9853;50.848;4.108;2023-05-13T08:54:00;23.50;99.90
19435;DHT22;9853;50.848;4.108;2023-05-13T08:56:15;23.50;99.90
19435;DHT22;9853;50.848;4.108;2023-05-13T08:58:26;24.00;99.90
19435;DHT22;9853;50.848;4.108;2023-05-13T09:00:38;24.10;99.90
19435;DHT22;9853;50.848;4.108;2023-05-13T09:02:45;24.30;99.90
19435;DHT22;9853;50.848;4.108;2023-05-13T09:04:49;24.30;99.90
19435;DHT22;9853;50.848;4.108;2023-05-13T09:06:52;24.00;99.90
19435;DHT22;9853;50.848;4.108;2023-05-13T09:09:02;23.80;99.90
19435;DHT22;9853;50.848;4.108;2023-05-13T09:11:46;24.10;99.90
19435;DHT22;9853;50.848;4.108;2023-05-13T09:14:06;24.20;99.90
19435;DHT22;9853;50.848;4.108;2023-05-13T09:16:23;24.60;99.90
19435;DHT22;9853;50.848;4.108;2023-05-13T09:19:09;24.70;99.90
19435;DHT22;9853;50.848;4.108;2023-05-13T09:21:26;24.60;99.90
19435;DHT22;9853;50.848;4.108;2023-05-13T09:23:51;23.90;99.90
19435;DHT22;9853;50.848;4.108;2023-05-13T09:26:40;23.30;99.90
19435;DHT22;9853;50.848;4.108;2023-05-13T09:28:42;23.70;99.90
19435;DHT22;9853;50.848;4.108;2023-05-13T09:30:53;23.50;99.90
19435;DHT22;9853;50.848;4.108;2023-05-13T09:33:16;22.80;99.90
19435;DHT22;9853;50.848;4.108;2023-05-13T09:35:19;23.00;99.90
19435;DHT22;9853;50.848;4.108;2023-05-13T09:37:23;22.60;99.90
19435;DHT22;9853;50.848;4.108;2023-05-13T09:39:44;22.90;99.90
19435;DHT22;9853;50.848;4.108;2023-05-13T09:41:53;23.20;99.90
19435;DHT22;9853;50.848;4.108;2023-05-13T09:44:05;23.20;99.90
19435;DHT22;9853;50.848;4.108;2023-05-13T09:46:37;23.10;99.90
19435;DHT22;9853;50.848;4.108;2023-05-13T09:48:46;23.10;99.90
19435;DHT22;9853;50.848;4.108;2023-05-13T09:53:46;22.90;99.90
19435;DHT22;9853;50.848;4.108;2023-05-13T09:55:57;23.10;99.90
19435;DHT22;9853;50.848;4.108;2023-05-13T09:58:11;22.90;99.90
19435;DHT22;9853;50.848;4.108;2023-05-13T10:00:16;23.10;99.90
19435;DHT22;9853;50.848;4.108;2023-05-13T10:02:40;23.20;99.90
19435;DHT22;9853;50.848;4.108;2023-05-13T10:04:55;23.40;99.90
19435;DHT22;9853;50.848;4.108;2023-05-13T10:07:05;23.60;99.90
19435;DHT22;9853;50.848;4.108;2023-05-13T10:09:35;23.50;99.90
19435;DHT22;9853;50.848;4.108;2023-05-13T10:11:54;23.40;99.90
19435;DHT22;9853;50.848;4.108;2023-05-13T10:14:11;22.90;99.90
19435;DHT22;9853;50.848;4.108;2023-05-13T10:19:06;22.60;99.90
19435;DHT22;9853;50.848;4.108;2023-05-13T10:21:07;22.20;99.90
19435;DHT22;9853;50.848;4.108;2023-05-13T10:23:11;21.60;99.90
19435;DHT22;9853;50.848;4.108;2023-05-13T10:25:32;21.30;99.90
19435;DHT22;9853;50.848;4.108;2023-05-13T10:27:58;20.90;99.90
19435;DHT22;9853;50.848;4.108;2023-05-13T10:30:37;20.80;99.90
19435;DHT22;9853;50.848;4.108;2023-05-13T10:32:41;20.70;99.90
19435;DHT22;9853;50.848;4.108;2023-05-13T10:34:48;20.70;99.90
19435;DHT22;9853;50.848;4.108;2023-05-13T10:37:24;20.90;99.90
19435;DHT22;9853;50.848;4.108;2023-05-13T10:40:59;21.20;99.90
19435;DHT22;9853;50.848;4.108;2023-05-13T10:43:37;21.60;99.90
19435;DHT22;9853;50.848;4.108;2023-05-13T10:45:48;21.40;99.90
19435;DHT22;9853;50.848;4.108;2023-05-13T10:47:55;21.40;99.90
19435;DHT22;9853;50.848;4.108;2023-05-13T10:49:56;21.40;99.90
19435;DHT22;9853;50.848;4.108;2023-05-13T10:52:07;21.40;99.90
19435;DHT22;9853;50.848;4.108;2023-05-13T10:54:21;21.10;99.90
19435;DHT22;9853;50.848;4.108;2023-05-13T10:56:27;20.80;99.90
19435;DHT22;9853;50.848;4.108;2023-05-13T10:58:38;21.00;99.90
19435;DHT22;9853;50.848;4.108;2023-05-13T11:00:49;21.20;99.90
19435;DHT22;9853;50.848;4.108;2023-05-13T11:03:26;21.50;99.90
19435;DHT22;9853;50.848;4.108;2023-05-13T11:08:00;21.70;99.90
19435;DHT22;9853;50.848;4.108;2023-05-13T11:10:01;21.60;99.90
19435;DHT22;9853;50.848;4.108;2023-05-13T11:12:06;21.40;99.90
19435;DHT22;9853;50.848;4.108;2023-05-13T11:16:22;21.40;99.90
19435;DHT22;9853;50.848;4.108;2023-05-13T11:18:29;21.50;99.90
19435;DHT22;9853;50.848;4.108;2023-05-13T11:20:40;21.80;99.90
19435;DHT22;9853;50.848;4.108;2023-05-13T11:22:44;21.80;99.90
19435;DHT22;9853;50.848;4.108;2023-05-13T11:27:41;21.50;99.90
19435;DHT22;9853;50.848;4.108;2023-05-13T11:30:07;21.60;99.90
19435;DHT22;9853;50.848;4.108;2023-05-13T11:34:52;21.60;99.90
19435;DHT22;9853;50.848;4.108;2023-05-13T11:37:08;21.70;99.90
19435;DHT22;9853;50.848;4.108;2023-05-13T11:39:19;21.60;99.90
19435;DHT22;9853;50.848;4.108;2023-05-13T11:41:34;21.80;99.90
19435;DHT22;9853;50.848;4.108;2023-05-13T11:43:47;21.90;99.90
19435;DHT22;9853;50.848;4.108;2023-05-13T11:45:52;22.00;99.90
19435;DHT22;9853;50.848;4.108;2023-05-13T11:47:53;21.80;99.90
19435;DHT22;9853;50.848;4.108;2023-05-13T11:50:27;21.70;99.90
19435;DHT22;9853;50.848;4.108;2023-05-13T11:52:34;21.60;99.90
19435;DHT22;9853;50.848;4.108;2023-05-13T11:56:49;21.70;99.90
19435;DHT22;9853;50.848;4.108;2023-05-13T11:58:50;21.60;99.90
19435;DHT22;9853;50.848;4.108;2023-05-13T12:03:39;21.70;99.90
19435;DHT22;9853;50.848;4.108;2023-05-13T12:05:42;21.90;99.90
19435;DHT22;9853;50.848;4.108;2023-05-13T12:07:55;22.30;99.90
19435;DHT22;9853;50.848;4.108;2023-05-13T12:09:59;22.00;99.90
19435;DHT22;9853;50.848;4.108;2023-05-13T12:12:03;22.00;99.90
19435;DHT22;9853;50.848;4.108;2023-05-13T12:14:14;22.00;99.90
19435;DHT22;9853;50.848;4.108;2023-05-13T12:16:20;22.10;99.90
19435;DHT22;9853;50.848;4.108;2023-05-13T12:18:42;22.20;99.90
19435;DHT22;9853;50.848;4.108;2023-05-13T12:20:58;22.20;99.90
19435;DHT22;9853;50.848;4.108;2023-05-13T12:23:03;22.20;99.90
19435;DHT22;9853;50.848;4.108;2023-05-13T12:25:41;22.00;99.90
19435;DHT22;9853;50.848;4.108;2023-05-13T12:30:23;22.30;99.90
19435;DHT22;9853;50.848;4.108;2023-05-13T12:35:03;22.50;99.90
19435;DHT22;9853;50.848;4.108;2023-05-13T12:37:33;22.40;99.90
19435;DHT22;9853;50.848;4.108;2023-05-13T12:39:34;22.40;99.90
19435;DHT22;9853;50.848;4.108;2023-05-13T12:41:38;22.60;99.90
19435;DHT22;9853;50.848;4.108;2023-05-13T12:43:43;22.90;99.90
19435;DHT22;9853;50.848;4.108;2023-05-13T12:46:10;22.90;99.90
19435;DHT22;9853;50.848;4.108;2023-05-13T12:48:21;22.80;99.90
19435;DHT22;9853;50.848;4.108;2023-05-13T12:50:31;22.90;99.90
19435;DHT22;9853;50.848;4.108;2023-05-13T12:52:41;22.60;99.90
19435;DHT22;9853;50.848;4.108;2023-05-13T12:54:44;22.60;99.90
19435;DHT22;9853;50.848;4.108;2023-05-13T12:56:56;22.70;99.90
19435;DHT22;9853;50.848;4.108;2023-05-13T12:59:26;22.50;99.90
19435;DHT22;9853;50.848;4.108;2023-05-13T13:01:40;22.60;99.90
19435;DHT22;9853;50.848;4.108;2023-05-13T13:04:10;22.70;99.90
19435;DHT22;9853;50.848;4.108;2023-05-13T13:06:16;22.70;99.90
19435;DHT22;9853;50.848;4.108;2023-05-13T13:08:23;22.80;99.90
19435;DHT22;9853;50.848;4.108;2023-05-13T13:10:33;23.00;99.90
19435;DHT22;9853;50.848;4.108;2023-05-13T13:12:34;22.90;99.90
19435;DHT22;9853;50.848;4.108;2023-05-13T13:14:37;23.00;99.90
19435;DHT22;9853;50.848;4.108;2023-05-13T13:16:38;23.10;99.90
19435;DHT22;9853;50.848;4.108;2023-05-13T13:18:41;23.00;99.90
19435;DHT22;9853;50.848;4.108;2023-05-13T13:21:01;22.80;99.90
19435;DHT22;9853;50.848;4.108;2023-05-13T13:23:17;22.60;99.90
19435;DHT22;9853;50.848;4.108;2023-05-13T13:25:33;22.70;99.90
19435;DHT22;9853;50.848;4.108;2023-05-13T13:27:37;22.80;99.90
19435;DHT22;9853;50.848;4.108;2023-05-13T13:29:37;23.00;99.90
19435;DHT22;9853;50.848;4.108;2023-05-13T13:31:44;23.00;99.90
19435;DHT22;9853;50.848;4.108;2023-05-13T13:33:51;22.80;99.90
19435;DHT22;9853;50.848;4.108;2023-05-13T13:35:59;23.00;99.90
19435;DHT22;9853;50.848;4.108;2023-05-13T13:38:15;23.10;99.90
19435;DHT22;9853;50.848;4.108;2023-05-13T13:40:19;23.00;99.90
19435;DHT22;9853;50.848;4.108;2023-05-13T13:42:29;23.30;99.90
19435;DHT22;9853;50.848;4.108;2023-05-13T13:44:39;23.00;99.90
19435;DHT22;9853;50.848;4.108;2023-05-13T13:46:40;22.70;99.90
19435;DHT22;9853;50.848;4.108;2023-05-13T13:48:51;22.30;99.90
19435;DHT22;9853;50.848;4.108;2023-05-13T13:50:52;22.30;99.90
19435;DHT22;9853;50.848;4.108;2023-05-13T13:53:11;22.30;99.90
19435;DHT22;9853;50.848;4.108;2023-05-13T13:55:15;22.60;99.90
19435;DHT22;9853;50.848;4.108;2023-05-13T13:57:16;22.70;99.90
19435;DHT22;9853;50.848;4.108;2023-05-13T13:59:17;22.50;99.90
19435;DHT22;9853;50.848;4.108;2023-05-13T14:01:18;22.40;99.90
19435;DHT22;9853;50.848;4.108;2023-05-13T14:03:20;22.50;99.90
19435;DHT22;9853;50.848;4.108;2023-05-13T14:05:23;22.70;99.90
19435;DHT22;9853;50.848;4.108;2023-05-13T14:07:35;22.70;99.90
19435;DHT22;9853;50.848;4.108;2023-05-13T14:09:48;22.40;99.90
19435;DHT22;9853;50.848;4.108;2023-05-13T14:11:50;22.20;99.90
19435;DHT22;9853;50.848;4.108;2023-05-13T14:13:51;22.20;99.90
19435;DHT22;9853;50.848;4.108;2023-05-13T14:15:57;22.40;99.90
19435;DHT22;9853;50.848;4.108;2023-05-13T14:18:21;22.60;99.90
19435;DHT22;9853;50.848;4.108;2023-05-13T14:20:46;22.70;99.90
19435;DHT22;9853;50.848;4.108;2023-05-13T14:22:50;22.80;99.90
19435;DHT22;9853;50.848;4.108;2023-05-13T14:25:43;23.00;99.90
19435;DHT22;9853;50.848;4.108;2023-05-13T14:27:47;22.60;99.90
19435;DHT22;9853;50.848;4.108;2023-05-13T14:30:31;22.60;99.90
19435;DHT22;9853;50.848;4.108;2023-05-13T14:32:44;22.70;99.90
19435;DHT22;9853;50.848;4.108;2023-05-13T14:34:50;22.60;99.90
19435;DHT22;9853;50.848;4.108;2023-05-13T14:37:23;22.90;99.90
19435;DHT22;9853;50.848;4.108;2023-05-13T14:39:35;23.00;99.90
19435;DHT22;9853;50.848;4.108;2023-05-13T14:41:39;22.80;99.90
19435;DHT22;9853;50.848;4.108;2023-05-13T14:46:22;22.30;99.90
19435;DHT22;9853;50.848;4.108;2023-05-13T14:48:45;22.10;99.90
19435;DHT22;9853;50.848;4.108;2023-05-13T14:50:54;21.90;99.90
19435;DHT22;9853;50.848;4.108;2023-05-13T14:52:58;21.80;99.90
19435;DHT22;9853;50.848;4.108;2023-05-13T14:55:01;21.50;99.90
19435;DHT22;9853;50.848;4.108;2023-05-13T14:57:08;21.50;99.90
19435;DHT22;9853;50.848;4.108;2023-05-13T15:02:10;21.90;99.90
19435;DHT22;9853;50.848;4.108;2023-05-13T15:04:13;21.80;99.90
19435;DHT22;9853;50.848;4.108;2023-05-13T15:06:14;21.80;99.90
19435;DHT22;9853;50.848;4.108;2023-05-13T15:08:15;21.70;99.90
19435;DHT22;9853;50.848;4.108;2023-05-13T15:10:16;21.80;99.90
19435;DHT22;9853;50.848;4.108;2023-05-13T15:12:17;22.00;99.90
19435;DHT22;9853;50.848;4.108;2023-05-13T15:14:17;22.20;99.90
19435;DHT22;9853;50.848;4.108;2023-05-13T15:16:20;22.20;99.90
19435;DHT22;9853;50.848;4.108;2023-05-13T15:18:21;22.40;99.90
19435;DHT22;9853;50.848;4.108;2023-05-13T15:20:22;22.50;99.90
19435;DHT22;9853;50.848;4.108;2023-05-13T15:22:23;22.70;99.90
19435;DHT22;9853;50.848;4.108;2023-05-13T15:24:24;22.80;99.90
19435;DHT22;9853;50.848;4.108;2023-05-13T15:26:25;22.70;99.90
19435;DHT22;9853;50.848;4.108;2023-05-13T15:28:26;22.80;99.90
19435;DHT22;9853;50.848;4.108;2023-05-13T15:30:28;22.70;99.90
19435;DHT22;9853;50.848;4.108;2023-05-13T15:32:29;22.70;99.90
19435;DHT22;9853;50.848;4.108;2023-05-13T15:34:30;22.60;99.90
19435;DHT22;9853;50.848;4.108;2023-05-13T15:36:33;22.20;99.90
19435;DHT22;9853;50.848;4.108;2023-05-13T15:38:35;21.90;99.90
19435;DHT22;9853;50.848;4.108;2023-05-13T15:40:39;21.90;99.90
19435;DHT22;9853;50.848;4.108;2023-05-13T15:42:40;21.90;99.90
19435;DHT22;9853;50.848;4.108;2023-05-13T15:44:40;21.80;99.90
19435;DHT22;9853;50.848;4.108;2023-05-13T15:46:41;21.50;99.90
19435;DHT22;9853;50.848;4.108;2023-05-13T15:48:42;21.30;99.90
19435;DHT22;9853;50.848;4.108;2023-05-13T15:50:43;20.90;99.90
19435;DHT22;9853;50.848;4.108;2023-05-13T15:52:44;20.80;99.90
19435;DHT22;9853;50.848;4.108;2023-05-13T15:54:45;20.60;99.90
19435;DHT22;9853;50.848;4.108;2023-05-13T15:56:45;20.30;99.90
19435;DHT22;9853;50.848;4.108;2023-05-13T15:58:47;20.20;99.90
19435;DHT22;9853;50.848;4.108;2023-05-13T16:00:48;20.30;99.90
19435;DHT22;9853;50.848;4.108;2023-05-13T16:02:49;20.40;99.90
19435;DHT22;9853;50.848;4.108;2023-05-13T16:04:50;20.40;99.90
19435;DHT22;9853;50.848;4.108;2023-05-13T16:06:51;20.50;99.90
19435;DHT22;9853;50.848;4.108;2023-05-13T16:08:52;20.60;99.90
19435;DHT22;9853;50.848;4.108;2023-05-13T16:10:53;20.40;99.90
19435;DHT22;9853;50.848;4.108;2023-05-13T16:12:54;20.30;99.90
19435;DHT22;9853;50.848;4.108;2023-05-13T16:14:55;20.40;99.90
19435;DHT22;9853;50.848;4.108;2023-05-13T16:16:58;20.80;99.90
19435;DHT22;9853;50.848;4.108;2023-05-13T16:18:58;20.80;99.90
19435;DHT22;9853;50.848;4.108;2023-05-13T16:21:03;20.70;99.90
19435;DHT22;9853;50.848;4.108;2023-05-13T16:23:04;20.60;99.90
19435;DHT22;9853;50.848;4.108;2023-05-13T16:25:06;20.50;99.90
19435;DHT22;9853;50.848;4.108;2023-05-13T16:27:07;20.40;99.90
19435;DHT22;9853;50.848;4.108;2023-05-13T16:29:08;20.30;99.90
19435;DHT22;9853;50.848;4.108;2023-05-13T16:31:09;20.30;99.90
19435;DHT22;9853;50.848;4.108;2023-05-13T16:33:10;20.20;99.90
19435;DHT22;9853;50.848;4.108;2023-05-13T16:35:11;20.30;99.90
19435;DHT22;9853;50.848;4.108;2023-05-13T16:37:12;20.20;99.90
19435;DHT22;9853;50.848;4.108;2023-05-13T16:39:12;20.30;99.90
19435;DHT22;9853;50.848;4.108;2023-05-13T16:41:16;20.20;99.90
19435;DHT22;9853;50.848;4.108;2023-05-13T16:43:17;20.10;99.90
19435;DHT22;9853;50.848;4.108;2023-05-13T16:45:17;20.30;99.90
19435;DHT22;9853;50.848;4.108;2023-05-13T16:47:18;20.30;99.90
19435;DHT22;9853;50.848;4.108;2023-05-13T16:49:19;20.30;99.90
19435;DHT22;9853;50.848;4.108;2023-05-13T16:51:20;20.10;99.90
19435;DHT22;9853;50.848;4.108;2023-05-13T16:53:21;20.20;99.90
19435;DHT22;9853;50.848;4.108;2023-05-13T16:55:22;20.10;99.90
19435;DHT22;9853;50.848;4.108;2023-05-13T16:57:25;20.10;99.90
19435;DHT22;9853;50.848;4.108;2023-05-13T16:59:27;20.20;99.90
19435;DHT22;9853;50.848;4.108;2023-05-13T17:01:30;20.10;99.90
19435;DHT22;9853;50.848;4.108;2023-05-13T17:03:30;20.30;99.90
19435;DHT22;9853;50.848;4.108;2023-05-13T17:05:31;20.50;99.90
19435;DHT22;9853;50.848;4.108;2023-05-13T17:07:32;20.20;99.90
19435;DHT22;9853;50.848;4.108;2023-05-13T17:09:33;20.00;99.90
19435;DHT22;9853;50.848;4.108;2023-05-13T17:11:34;19.80;99.90
19435;DHT22;9853;50.848;4.108;2023-05-13T17:13:35;19.80;99.90
19435;DHT22;9853;50.848;4.108;2023-05-13T17:15:36;19.70;99.90
19435;DHT22;9853;50.848;4.108;2023-05-13T17:17:36;19.80;99.90
19435;DHT22;9853;50.848;4.108;2023-05-13T17:19:37;20.10;99.90
19435;DHT22;9853;50.848;4.108;2023-05-13T17:21:38;20.20;99.90
19435;DHT22;9853;50.848;4.108;2023-05-13T17:23:38;20.10;99.90
19435;DHT22;9853;50.848;4.108;2023-05-13T17:25:39;20.10;99.90
19435;DHT22;9853;50.848;4.108;2023-05-13T17:27:40;20.10;99.90
19435;DHT22;9853;50.848;4.108;2023-05-13T17:29:41;20.00;99.90
19435;DHT22;9853;50.848;4.108;2023-05-13T17:31:41;20.10;99.90
19435;DHT22;9853;50.848;4.108;2023-05-13T17:33:42;20.10;99.90
19435;DHT22;9853;50.848;4.108;2023-05-13T17:35:43;20.10;99.90
19435;DHT22;9853;50.848;4.108;2023-05-13T17:37:44;19.90;99.90
19435;DHT22;9853;50.848;4.108;2023-05-13T17:39:44;19.30;99.90
19435;DHT22;9853;50.848;4.108;2023-05-13T17:41:45;19.50;99.90
19435;DHT22;9853;50.848;4.108;2023-05-13T17:43:46;19.60;99.90
19435;DHT22;9853;50.848;4.108;2023-05-13T17:45:48;19.70;99.90
19435;DHT22;9853;50.848;4.108;2023-05-13T17:47:48;19.50;99.90
19435;DHT22;9853;50.848;4.108;2023-05-13T17:49:49;19.60;99.90
19435;DHT22;9853;50.848;4.108;2023-05-13T17:51:50;19.70;99.90
19435;DHT22;9853;50.848;4.108;2023-05-13T17:53:51;19.90;99.90
19435;DHT22;9853;50.848;4.108;2023-05-13T17:55:51;19.80;99.90
19435;DHT22;9853;50.848;4.108;2023-05-13T17:57:53;19.70;99.90
19435;DHT22;9853;50.848;4.108;2023-05-13T17:59:55;19.70;99.90
19435;DHT22;9853;50.848;4.108;2023-05-13T18:01:55;19.80;99.90
19435;DHT22;9853;50.848;4.108;2023-05-13T18:03:56;19.70;99.90
19435;DHT22;9853;50.848;4.108;2023-05-13T18:05:57;19.30;99.90
19435;DHT22;9853;50.848;4.108;2023-05-13T18:07:58;19.40;99.90
19435;DHT22;9853;50.848;4.108;2023-05-13T18:09:59;19.40;99.90
19435;DHT22;9853;50.848;4.108;2023-05-13T18:11:59;19.40;99.90
19435;DHT22;9853;50.848;4.108;2023-05-13T18:14:00;19.40;99.90
19435;DHT22;9853;50.848;4.108;2023-05-13T18:16:01;19.40;99.90
19435;DHT22;9853;50.848;4.108;2023-05-13T18:18:04;19.40;99.90
19435;DHT22;9853;50.848;4.108;2023-05-13T18:20:05;19.40;99.90
19435;DHT22;9853;50.848;4.108;2023-05-13T18:22:07;19.40;99.90
19435;DHT22;9853;50.848;4.108;2023-05-13T18:24:11;19.10;99.90
19435;DHT22;9853;50.848;4.108;2023-05-13T18:26:11;18.90;99.90
19435;DHT22;9853;50.848;4.108;2023-05-13T18:28:12;18.70;99.90
19435;DHT22;9853;50.848;4.108;2023-05-13T18:30:14;18.70;99.90
19435;DHT22;9853;50.848;4.108;2023-05-13T18:32:15;18.80;99.90
19435;DHT22;9853;50.848;4.108;2023-05-13T18:34:16;18.50;99.90
19435;DHT22;9853;50.848;4.108;2023-05-13T18:36:17;18.40;99.90
19435;DHT22;9853;50.848;4.108;2023-05-13T18:38:17;18.40;99.90
19435;DHT22;9853;50.848;4.108;2023-05-13T18:40:18;18.20;99.90
19435;DHT22;9853;50.848;4.108;2023-05-13T18:42:19;18.00;99.90
19435;DHT22;9853;50.848;4.108;2023-05-13T18:44:20;18.00;99.90
19435;DHT22;9853;50.848;4.108;2023-05-13T18:46:21;17.90;99.90
19435;DHT22;9853;50.848;4.108;2023-05-13T18:48:22;17.70;99.90
19435;DHT22;9853;50.848;4.108;2023-05-13T18:50:24;17.70;99.90
19435;DHT22;9853;50.848;4.108;2023-05-13T18:52:25;17.70;99.90
19435;DHT22;9853;50.848;4.108;2023-05-13T18:54:26;17.70;99.90